createdAt,value
2018-03-25T00:02:03.266Z,81
2018-03-25T00:07:03.876Z,82
2018-03-25T00:12:04.108Z,82
2018-03-25T00:17:03.850Z,82
2018-03-25T00:22:03.701Z,82
2018-03-25T00:27:03.886Z,82
2018-03-25T00:32:03.275Z,82
2018-03-25T00:37:03.689Z,82
2018-03-25T00:42:03.701Z,82
2018-03-25T00:47:03.899Z,82
2018-03-25T00:52:04.023Z,82
2018-03-25T00:57:03.404Z,82
2018-03-25T01:02:03.705Z,82
2018-03-25T01:07:04.408Z,82
2018-03-25T01:12:03.992Z,82
2018-03-25T01:17:04.207Z,82
2018-03-25T01:22:03.891Z,82
2018-03-25T01:27:03.462Z,82
2018-03-25T01:32:03.790Z,82
2018-03-25T01:37:04.011Z,82
2018-03-25T01:42:04.053Z,82
2018-03-25T01:47:04.138Z,82
2018-03-25T01:52:03.555Z,82
2018-03-25T01:57:03.887Z,82
2018-03-25T02:02:04.161Z,82
2018-03-25T02:07:03.972Z,83
2018-03-25T02:12:04.044Z,83
2018-03-25T02:17:03.757Z,83
2018-03-25T02:22:03.994Z,83
2018-03-25T02:27:03.671Z,83
2018-03-25T02:32:04.137Z,83
2018-03-25T02:37:03.674Z,83
2018-03-25T02:42:04.004Z,83
2018-03-25T02:47:03.749Z,83
2018-03-25T02:52:03.518Z,83
2018-03-25T02:57:03.753Z,83
2018-03-25T03:02:04.085Z,83
2018-03-25T03:07:04.163Z,83
2018-03-25T03:12:04.075Z,83
2018-03-25T03:17:03.673Z,83
2018-03-25T03:22:03.819Z,83
2018-03-25T03:27:04.186Z,83
2018-03-25T03:32:04.245Z,83
2018-03-25T03:37:04.371Z,83
2018-03-25T03:42:03.609Z,83
2018-03-25T03:47:03.771Z,83
2018-03-25T03:52:03.771Z,83
2018-03-25T03:57:04.285Z,84
2018-03-25T04:02:04.477Z,84
2018-03-25T04:07:03.682Z,84
2018-03-25T04:12:03.762Z,84
2018-03-25T04:17:04.301Z,84
2018-03-25T04:22:03.553Z,84
2018-03-25T04:27:04.003Z,84
2018-03-25T04:32:03.604Z,84
2018-03-25T04:37:03.650Z,84
2018-03-25T04:42:03.959Z,84
2018-03-25T04:47:03.733Z,85
2018-03-25T04:52:03.953Z,85
2018-03-25T04:57:04.091Z,85
2018-03-25T05:02:03.974Z,85
2018-03-25T05:07:03.814Z,85
2018-03-25T05:12:03.906Z,85
2018-03-25T05:17:04.024Z,85
2018-03-25T05:22:04.488Z,85
2018-03-25T05:27:04.636Z,85
2018-03-25T05:32:04.244Z,85
2018-03-25T05:37:04.015Z,85
2018-03-25T05:42:04.564Z,85
2018-03-25T05:47:04.128Z,85
2018-03-25T05:52:03.735Z,85
2018-03-25T05:57:03.780Z,86
2018-03-25T06:02:04.053Z,86
2018-03-25T06:07:04.614Z,86
2018-03-25T06:12:03.980Z,86
2018-03-25T06:17:04.100Z,86
2018-03-25T06:22:04.462Z,86
2018-03-25T06:27:03.944Z,86
2018-03-25T06:32:04.306Z,86
2018-03-25T06:37:03.947Z,86
2018-03-25T06:42:03.980Z,86
2018-03-25T06:47:04.247Z,86
2018-03-25T06:52:03.893Z,86
2018-03-25T06:57:03.736Z,85
2018-03-25T07:02:04.272Z,85
2018-03-25T07:07:03.807Z,85
2018-03-25T07:12:04.060Z,85
2018-03-25T07:17:04.479Z,85
2018-03-25T07:22:04.180Z,85
2018-03-25T07:27:04.036Z,85
2018-03-25T07:32:04.548Z,85
2018-03-25T07:37:04.442Z,85
2018-03-25T07:42:04.567Z,85
2018-03-25T07:47:03.948Z,84
2018-03-25T07:52:04.616Z,84
2018-03-25T07:57:03.757Z,84
2018-03-25T08:02:04.163Z,84
2018-03-25T08:07:04.760Z,83
2018-03-25T08:12:04.730Z,83
2018-03-25T08:17:04.674Z,82
2018-03-25T08:22:04.790Z,82
2018-03-25T08:27:03.752Z,81
2018-03-25T08:32:04.034Z,81
2018-03-25T08:37:04.399Z,79
2018-03-25T08:42:04.497Z,79
2018-03-25T08:47:04.515Z,78
2018-03-25T08:52:04.547Z,78
2018-03-25T08:57:03.988Z,76
2018-03-25T09:02:04.157Z,76
2018-03-25T09:07:04.066Z,74
2018-03-25T09:12:03.975Z,74
2018-03-25T09:17:04.065Z,70
2018-03-25T09:22:04.146Z,70
2018-03-25T09:27:04.745Z,68
2018-03-25T09:32:04.865Z,68
2018-03-25T09:37:04.208Z,66
2018-03-25T09:42:03.819Z,66
2018-03-25T09:47:04.938Z,63
2018-03-25T09:52:04.210Z,63
2018-03-25T09:57:04.661Z,58
2018-03-25T10:02:05.134Z,58
2018-03-25T10:07:04.463Z,60
2018-03-25T10:12:04.223Z,60
2018-03-25T10:17:04.903Z,57
2018-03-25T10:22:03.891Z,57
2018-03-25T10:27:04.410Z,54
2018-03-25T10:32:04.055Z,54
2018-03-25T10:37:04.135Z,54
2018-03-25T10:42:04.780Z,54
2018-03-25T10:47:04.612Z,52
2018-03-25T10:52:04.571Z,52
2018-03-25T10:57:03.950Z,51
2018-03-25T11:02:04.427Z,51
2018-03-25T11:07:04.172Z,53
2018-03-25T11:12:04.594Z,53
2018-03-25T11:17:04.613Z,52
2018-03-25T11:22:04.781Z,52
2018-03-25T11:27:04.568Z,52
2018-03-25T11:32:04.682Z,52
2018-03-25T11:37:04.854Z,53
2018-03-25T11:42:04.060Z,53
2018-03-25T11:47:03.992Z,53
2018-03-25T11:52:04.056Z,53
2018-03-25T11:57:04.323Z,54
2018-03-25T12:02:04.204Z,54
2018-03-25T12:07:04.704Z,53
2018-03-25T12:12:04.673Z,53
2018-03-25T12:17:05.229Z,54
2018-03-25T12:22:04.177Z,54
2018-03-25T12:27:05.077Z,53
2018-03-25T12:32:04.526Z,53
2018-03-25T12:37:04.868Z,54
2018-03-25T12:42:05.086Z,54
2018-03-25T12:47:04.398Z,53
2018-03-25T12:52:04.733Z,53
2018-03-25T12:57:04.147Z,54
2018-03-25T13:02:04.518Z,54
2018-03-25T13:07:04.445Z,54
2018-03-25T13:12:04.611Z,54
2018-03-25T13:17:04.737Z,55
2018-03-25T13:22:04.731Z,55
2018-03-25T13:27:04.324Z,54
2018-03-25T13:32:04.852Z,54
2018-03-25T13:37:05.016Z,52
2018-03-25T13:42:04.286Z,52
2018-03-25T13:47:04.584Z,54
2018-03-25T13:52:04.443Z,54
2018-03-25T13:57:04.988Z,54
2018-03-25T14:02:04.601Z,54
2018-03-25T14:07:04.349Z,54
2018-03-25T14:12:05.136Z,54
2018-03-25T14:17:04.526Z,57
2018-03-25T14:22:04.258Z,57
2018-03-25T14:27:04.484Z,55
2018-03-25T14:32:04.842Z,55
2018-03-25T14:37:04.833Z,57
2018-03-25T14:42:04.398Z,57
2018-03-25T14:47:04.769Z,57
2018-03-25T14:52:04.880Z,57
2018-03-25T14:57:04.705Z,59
2018-03-25T15:02:04.886Z,59
2018-03-25T15:07:04.435Z,59
2018-03-25T15:12:05.110Z,59
2018-03-25T15:17:04.970Z,58
2018-03-25T15:22:05.116Z,58
2018-03-25T15:27:04.784Z,59
2018-03-25T15:32:04.869Z,59
2018-03-25T15:37:05.227Z,59
2018-03-25T15:42:04.444Z,59
2018-03-25T15:47:04.751Z,58
2018-03-25T15:52:04.803Z,58
2018-03-25T15:57:05.012Z,60
2018-03-25T16:02:05.266Z,60
2018-03-25T16:07:04.595Z,60
2018-03-25T16:12:04.946Z,60
2018-03-25T16:17:04.824Z,60
2018-03-25T16:22:04.964Z,60
2018-03-25T16:27:04.994Z,60
2018-03-25T16:32:05.099Z,60
2018-03-25T16:37:04.884Z,62
2018-03-25T16:42:04.615Z,62
2018-03-25T16:47:05.026Z,62
2018-03-25T16:52:04.746Z,62
2018-03-25T16:57:05.081Z,63
2018-03-25T17:02:04.391Z,63
2018-03-25T17:07:05.104Z,64
2018-03-25T17:12:04.915Z,64
2018-03-25T17:17:04.848Z,65
2018-03-25T17:22:05.166Z,65
2018-03-25T17:27:04.908Z,65
2018-03-25T17:32:04.513Z,65
2018-03-25T17:37:04.886Z,66
2018-03-25T17:42:05.035Z,66
2018-03-25T17:47:05.053Z,66
2018-03-25T17:52:05.120Z,66
2018-03-25T17:57:05.177Z,67
2018-03-25T18:02:05.245Z,67
2018-03-25T18:07:05.265Z,67
2018-03-25T18:12:04.528Z,67
2018-03-25T18:17:05.100Z,68
2018-03-25T18:22:05.142Z,68
2018-03-25T18:27:04.654Z,68
2018-03-25T18:32:05.391Z,68
2018-03-25T18:37:05.256Z,69
2018-03-25T18:42:04.590Z,69
2018-03-25T18:47:04.687Z,69
2018-03-25T18:52:05.374Z,69
2018-03-25T18:57:04.762Z,70
2018-03-25T19:02:05.080Z,70
2018-03-25T19:07:05.142Z,70
2018-03-25T19:12:04.943Z,70
2018-03-25T19:17:04.920Z,70
2018-03-25T19:22:04.631Z,70
2018-03-25T19:27:04.898Z,71
2018-03-25T19:32:05.403Z,71
2018-03-25T19:37:05.425Z,72
2018-03-25T19:42:05.498Z,72
2018-03-25T19:47:05.396Z,72
2018-03-25T19:52:05.068Z,72
2018-03-25T19:57:05.158Z,73
2018-03-25T20:02:05.403Z,73
2018-03-25T20:07:05.533Z,74
2018-03-25T20:12:05.398Z,74
2018-03-25T20:17:04.686Z,75
2018-03-25T20:22:04.810Z,75
2018-03-25T20:27:05.523Z,76
2018-03-25T20:32:04.743Z,76
2018-03-25T20:37:04.744Z,77
2018-03-25T20:42:04.747Z,77
2018-03-25T20:47:05.565Z,77
2018-03-25T20:52:05.324Z,77
2018-03-25T20:57:05.549Z,77
2018-03-25T21:02:04.884Z,77
2018-03-25T21:07:05.395Z,78
2018-03-25T21:12:05.562Z,78
2018-03-25T21:17:05.604Z,78
2018-03-25T21:22:04.876Z,78
2018-03-25T21:27:05.108Z,78
2018-03-25T21:32:05.595Z,78
2018-03-25T21:37:04.815Z,79
2018-03-25T21:42:04.901Z,79
2018-03-25T21:47:05.265Z,80
2018-03-25T21:52:05.356Z,80
2018-03-25T21:57:05.684Z,80
2018-03-25T22:02:05.027Z,80
2018-03-25T22:07:05.431Z,81
2018-03-25T22:12:05.308Z,81
2018-03-25T22:17:05.425Z,82
2018-03-25T22:22:04.957Z,82
2018-03-25T22:27:05.661Z,83
2018-03-25T22:32:05.760Z,83
2018-03-25T22:37:05.617Z,84
2018-03-25T22:42:04.719Z,84
2018-03-25T22:47:05.290Z,84
2018-03-25T22:52:05.297Z,84
2018-03-25T22:57:05.804Z,84
2018-03-25T23:02:05.037Z,84
2018-03-25T23:07:05.171Z,85
2018-03-25T23:12:05.516Z,85
2018-03-25T23:17:05.659Z,85
2018-03-25T23:22:04.998Z,85
2018-03-25T23:27:05.216Z,85
2018-03-25T23:32:05.535Z,85
2018-03-25T23:37:05.213Z,86
2018-03-25T23:42:05.168Z,86
2018-03-25T23:47:05.173Z,86
2018-03-25T23:52:04.870Z,86
2018-03-25T23:57:04.981Z,86
